Weather at Panama Pacific International Airport

Public forecast

Using degrees Celsius for public forecast. Weather courtesy of forecast.io.

Current aviation weather report (METAR) for Panama Pacific International Airport

Report is more than 2 hours old.

Retrieved 2020/10/29 23:00 UTC (2 hours ago):

MPPA 292300Z 19005KT 9999 FEW010 SCT017CB SCT080 27/25 Q1008

Closest aviation forecast (TAF) to Panama Pacific International Airport

Forecast is more than 6 hours old.

Retrieved 2020/10/29 18:00 UTC (7 hours ago):

TAF MPPA 291700Z 2918/3024 20006KT 9999 SCT018 SCT100 TEMPO 2918/2922 17014KT 7000 TSRA SCT014CB BKN080 TEMPO 2923/3003 02006KT NSW TEMPO 3005/3008 VRB02KT TEMPO 3011/3013 01005KT